createdAt,value
2023-04-15T00:00:05.181Z,8.15
2023-04-15T00:02:18.563Z,7.70
2023-04-15T00:04:22.418Z,9.18
2023-04-15T00:06:26.518Z,8.30
2023-04-15T00:08:30.433Z,8.63
2023-04-15T00:10:35.254Z,10.93
2023-04-15T00:12:38.855Z,9.05
2023-04-15T00:14:42.845Z,8.35
2023-04-15T00:16:46.259Z,8.95
2023-04-15T00:18:49.991Z,8.77
2023-04-15T00:20:53.875Z,9.52
2023-04-15T00:22:58.195Z,9.23
2023-04-15T00:25:02.387Z,9.20
2023-04-15T00:27:07.641Z,9.23
2023-04-15T00:29:10.907Z,10.82
2023-04-15T00:31:14.516Z,13.02
2023-04-15T00:33:17.854Z,13.73
2023-04-15T00:35:21.832Z,8.75
2023-04-15T00:37:25.338Z,8.75
2023-04-15T00:39:29.747Z,7.90
2023-04-15T00:41:34.220Z,8.48
2023-04-15T00:43:39.657Z,10.80
2023-04-15T00:45:43.567Z,11.02
2023-04-15T00:47:47.302Z,11.25
2023-04-15T00:49:50.839Z,12.15
2023-04-15T00:51:54.568Z,11.63
2023-04-15T00:53:58.440Z,10.00
2023-04-15T00:56:02.174Z,9.40
2023-04-15T00:58:05.990Z,9.18
2023-04-15T01:00:12.669Z,6.40
2023-04-15T01:02:16.691Z,7.68
2023-04-15T01:04:20.423Z,7.05
2023-04-15T01:06:24.374Z,7.45
2023-04-15T01:08:29.705Z,6.68
2023-04-15T01:10:33.640Z,7.80
2023-04-15T01:12:37.934Z,7.35
2023-04-15T01:14:41.451Z,8.13
2023-04-15T01:16:46.980Z,7.75
2023-04-15T01:18:50.743Z,7.68
2023-04-15T01:20:54.664Z,7.65
2023-04-15T01:22:59.265Z,6.95
2023-04-15T01:25:08.398Z,6.40
2023-04-15T01:27:13.908Z,6.10
2023-04-15T01:29:17.405Z,6.60
2023-04-15T01:31:20.995Z,6.68
2023-04-15T01:33:24.578Z,6.25
2023-04-15T01:35:28.385Z,5.90
2023-04-15T01:37:32.440Z,7.07
2023-04-15T01:39:36.158Z,6.43
2023-04-15T01:41:39.527Z,5.68
2023-04-15T01:43:44.761Z,6.13
2023-04-15T01:45:48.198Z,6.20
2023-04-15T01:47:51.828Z,5.80
2023-04-15T01:49:56.272Z,5.65
2023-04-15T01:51:59.928Z,7.00
2023-04-15T01:54:03.427Z,5.55
2023-04-15T01:56:07.379Z,6.45
2023-04-15T01:58:10.764Z,6.82
2023-04-15T02:00:16.714Z,6.85
2023-04-15T02:02:20.743Z,6.07
2023-04-15T02:04:24.670Z,5.57
2023-04-15T02:06:29.368Z,5.85
2023-04-15T02:08:33.875Z,5.07
2023-04-15T02:10:37.469Z,4.60
2023-04-15T02:12:41.023Z,4.90
2023-04-15T02:14:44.657Z,4.65
2023-04-15T02:16:49.619Z,5.20
2023-04-15T02:18:53.734Z,5.40
2023-04-15T02:20:59.593Z,4.60
2023-04-15T02:23:07.676Z,4.35
2023-04-15T02:25:13.266Z,4.47
2023-04-15T02:27:23.790Z,4.50
2023-04-15T02:29:29.257Z,4.57
2023-04-15T02:31:38.778Z,4.30
2023-04-15T02:33:45.377Z,4.10
2023-04-15T02:35:51.997Z,4.05
2023-04-15T02:37:58.248Z,3.85
2023-04-15T02:40:04.126Z,3.97
2023-04-15T02:42:17.615Z,4.60
2023-04-15T02:44:22.950Z,4.25
2023-04-15T02:46:27.635Z,4.22
2023-04-15T02:48:31.531Z,3.85
2023-04-15T02:50:37.937Z,4.53
2023-04-15T02:52:41.770Z,4.03
2023-04-15T02:54:45.858Z,3.22
2023-04-15T02:56:50.052Z,4.05
2023-04-15T02:58:56.285Z,4.30
2023-04-15T03:00:59.613Z,4.95
2023-04-15T03:03:05.455Z,3.10
2023-04-15T03:05:13.145Z,3.80
2023-04-15T03:07:19.417Z,3.22
2023-04-15T03:09:23.540Z,3.45
2023-04-15T03:11:27.546Z,3.63
2023-04-15T03:13:30.829Z,3.72
2023-04-15T03:15:34.744Z,3.25
2023-04-15T03:17:38.246Z,3.95
2023-04-15T03:19:41.740Z,3.38
2023-04-15T03:21:45.093Z,3.72
2023-04-15T03:23:50.532Z,3.08
2023-04-15T03:25:56.082Z,2.88
2023-04-15T03:27:59.573Z,3.00
2023-04-15T03:30:03.443Z,3.35
2023-04-15T03:32:07.285Z,3.95
2023-04-15T03:34:11.192Z,3.72
2023-04-15T03:36:15.212Z,4.43
2023-04-15T03:38:18.688Z,4.13
2023-04-15T03:40:25.032Z,3.92
2023-04-15T03:42:28.863Z,4.57
2023-04-15T03:44:32.969Z,3.90
2023-04-15T03:46:36.711Z,3.83
2023-04-15T03:48:40.445Z,3.83
2023-04-15T03:50:44.471Z,4.22
2023-04-15T03:52:49.196Z,4.20
2023-04-15T03:54:54.724Z,4.70
2023-04-15T03:56:59.567Z,4.32
2023-04-15T03:59:03.448Z,3.70
2023-04-15T04:01:07.044Z,3.28
2023-04-15T04:03:10.550Z,3.65
2023-04-15T04:05:14.291Z,3.75
2023-04-15T04:07:18.220Z,3.20
2023-04-15T04:09:22.972Z,3.10
2023-04-15T04:11:26.590Z,3.50
2023-04-15T04:13:31.543Z,3.35
2023-04-15T04:15:35.460Z,2.78
2023-04-15T04:17:38.832Z,3.38
2023-04-15T04:19:42.279Z,3.63
2023-04-15T04:21:45.808Z,4.40
2023-04-15T04:23:49.504Z,3.45
2023-04-15T04:25:53.689Z,3.70
2023-04-15T04:27:57.097Z,3.80
2023-04-15T04:30:02.253Z,3.42
2023-04-15T04:32:06.080Z,3.90
2023-04-15T04:34:09.920Z,4.40
2023-04-15T04:36:13.344Z,4.15
2023-04-15T04:38:16.872Z,4.32
2023-04-15T04:40:20.837Z,6.32
2023-04-15T04:42:24.332Z,5.53
2023-04-15T04:44:27.827Z,6.63
2023-04-15T04:46:33.169Z,5.60
2023-04-15T04:48:37.040Z,4.85
2023-04-15T04:50:40.466Z,3.70
2023-04-15T04:52:43.997Z,4.50
2023-04-15T04:54:47.425Z,3.17
2023-04-15T04:56:51.049Z,3.55
2023-04-15T04:58:54.473Z,4.28
2023-04-15T05:00:58.562Z,3.92
2023-04-15T05:03:04.147Z,3.60
2023-04-15T05:05:08.759Z,4.35
2023-04-15T05:07:12.323Z,2.67
2023-04-15T05:09:15.657Z,3.05
2023-04-15T05:11:19.196Z,3.10
2023-04-15T05:13:22.903Z,2.55
2023-04-15T05:15:27.024Z,2.78
2023-04-15T05:17:33.548Z,2.97
2023-04-15T05:19:38.479Z,3.83
2023-04-15T05:21:42.312Z,3.05
2023-04-15T05:23:45.905Z,2.70
2023-04-15T05:25:49.292Z,2.92
2023-04-15T05:27:53.270Z,3.10
2023-04-15T05:29:56.885Z,3.88
2023-04-15T05:32:00.604Z,3.38
2023-04-15T05:34:05.519Z,3.50
2023-04-15T05:36:10.866Z,2.85
2023-04-15T05:38:14.160Z,2.90
2023-04-15T05:40:17.893Z,2.80
2023-04-15T05:42:21.656Z,2.40
2023-04-15T05:44:25.736Z,2.25
2023-04-15T05:46:29.204Z,2.75
2023-04-15T05:48:32.529Z,2.60
2023-04-15T05:50:35.912Z,3.40
2023-04-15T05:52:40.950Z,2.65
2023-04-15T05:54:44.267Z,2.78
2023-04-15T05:56:47.561Z,2.45
2023-04-15T05:58:53.696Z,2.70
2023-04-15T06:00:57.190Z,2.85
2023-04-15T06:03:01.072Z,2.50
2023-04-15T06:05:05.374Z,2.83
2023-04-15T06:07:09.097Z,3.25
2023-04-15T06:09:14.041Z,2.45
2023-04-15T06:11:17.527Z,2.35
2023-04-15T06:13:20.845Z,1.95
2023-04-15T06:15:24.338Z,2.67
2023-04-15T06:17:27.960Z,2.30
2023-04-15T06:19:31.991Z,2.10
2023-04-15T06:21:35.616Z,1.93
2023-04-15T06:23:41.264Z,1.98
2023-04-15T06:25:46.331Z,1.77
2023-04-15T06:27:50.189Z,2.20
2023-04-15T06:29:53.998Z,1.98
2023-04-15T06:31:57.643Z,1.98
2023-04-15T06:34:01.129Z,1.60
2023-04-15T06:36:04.608Z,1.63
2023-04-15T06:38:07.977Z,1.20
2023-04-15T06:40:12.631Z,1.47
2023-04-15T06:42:17.423Z,1.73
2023-04-15T06:44:20.742Z,1.58
2023-04-15T06:46:24.260Z,1.30
2023-04-15T06:48:27.836Z,1.23
2023-04-15T06:50:31.421Z,1.30
2023-04-15T06:52:35.231Z,1.60
2023-04-15T06:54:38.550Z,1.50
2023-04-15T06:56:42.084Z,1.07
2023-04-15T06:58:47.249Z,1.13
2023-04-15T07:00:50.662Z,1.10
2023-04-15T07:02:55.414Z,1.70
2023-04-15T07:04:58.708Z,1.33
2023-04-15T07:07:02.654Z,1.58
2023-04-15T07:09:06.205Z,1.25
2023-04-15T07:11:09.557Z,1.70
2023-04-15T07:13:12.838Z,1.00
2023-04-15T07:15:17.835Z,2.43
2023-04-15T07:17:21.626Z,1.90
2023-04-15T07:19:25.166Z,1.67
2023-04-15T07:21:29.633Z,1.70
2023-04-15T07:23:32.942Z,1.57
2023-04-15T07:25:36.472Z,2.40
2023-04-15T07:27:39.860Z,2.00
2023-04-15T07:29:43.222Z,2.00
2023-04-15T07:31:47.823Z,2.05
2023-04-15T07:33:51.188Z,1.83
2023-04-15T07:35:54.387Z,1.90
2023-04-15T07:37:58.192Z,1.50
2023-04-15T07:40:01.479Z,2.60
2023-04-15T07:42:05.661Z,2.75
2023-04-15T07:44:09.279Z,2.23
2023-04-15T07:46:12.709Z,1.90
2023-04-15T07:48:17.353Z,2.20
2023-04-15T07:50:20.698Z,2.83
2023-04-15T07:52:24.062Z,2.10
2023-04-15T07:54:27.584Z,2.17
2023-04-15T07:56:31.215Z,2.17
2023-04-15T07:58:34.536Z,1.93
2023-04-15T08:00:38.703Z,1.73
2023-04-15T08:02:42.983Z,1.30
2023-04-15T08:04:48.159Z,1.23
2023-04-15T08:06:52.713Z,1.40
2023-04-15T08:08:56.311Z,1.83
2023-04-15T08:11:00.118Z,1.53
2023-04-15T08:13:03.860Z,1.60
2023-04-15T08:15:09.231Z,1.50
2023-04-15T08:17:12.758Z,1.47
2023-04-15T08:19:16.070Z,1.40
2023-04-15T08:21:21.447Z,1.43
2023-04-15T08:23:24.944Z,2.00
2023-04-15T08:25:29.513Z,1.47
2023-04-15T08:27:32.852Z,1.40
2023-04-15T08:29:36.361Z,1.00
2023-04-15T08:31:40.351Z,1.40
2023-04-15T08:33:43.992Z,1.53
2023-04-15T08:35:47.792Z,1.20
2023-04-15T08:37:52.703Z,1.60
2023-04-15T08:39:56.345Z,1.30
2023-04-15T08:42:03.885Z,1.50
2023-04-15T08:44:07.730Z,1.70
2023-04-15T08:46:12.092Z,1.90
2023-04-15T08:48:17.794Z,1.20
2023-04-15T08:50:22.299Z,1.37
2023-04-15T08:52:27.239Z,1.60
2023-04-15T08:54:32.349Z,1.20
2023-04-15T08:56:37.290Z,1.10
2023-04-15T08:58:40.773Z,1.57
2023-04-15T09:00:44.304Z,1.50
2023-04-15T09:02:48.169Z,1.60
2023-04-15T09:04:51.483Z,1.43
2023-04-15T09:06:55.697Z,1.40
2023-04-15T09:08:58.888Z,1.90
2023-04-15T09:11:04.206Z,1.80
2023-04-15T09:13:07.713Z,1.73
2023-04-15T09:15:13.926Z,1.60
2023-04-15T09:17:21.191Z,2.10
2023-04-15T09:19:25.530Z,2.10
2023-04-15T09:21:29.584Z,2.00
2023-04-15T09:23:34.004Z,2.23
2023-04-15T09:25:37.293Z,2.30
2023-04-15T09:27:49.828Z,1.63
2023-04-15T09:29:55.036Z,1.83
2023-04-15T09:31:58.229Z,1.87
2023-04-15T09:34:01.865Z,1.80
2023-04-15T09:36:07.036Z,2.00
2023-04-15T09:38:11.361Z,3.73
2023-04-15T09:40:15.353Z,2.07
2023-04-15T09:42:24.452Z,2.10
2023-04-15T09:44:29.541Z,2.10
2023-04-15T09:46:46.390Z,2.10
2023-04-15T09:49:09.470Z,2.30
2023-04-15T09:51:12.982Z,1.83
2023-04-15T09:53:20.680Z,2.57
2023-04-15T09:55:24.321Z,1.80
2023-04-15T09:57:36.744Z,2.30
2023-04-15T09:59:41.604Z,2.40
2023-04-15T10:01:46.513Z,3.30
2023-04-15T10:03:50.329Z,2.70
2023-04-15T10:05:57.205Z,1.90
2023-04-15T10:08:01.166Z,2.10
2023-04-15T10:10:06.026Z,2.60
2023-04-15T10:12:10.101Z,2.27
2023-04-15T10:14:17.661Z,2.57
2023-04-15T10:16:23.102Z,2.30
2023-04-15T10:18:29.339Z,2.30
2023-04-15T10:20:32.922Z,1.90
2023-04-15T10:22:37.595Z,2.33
2023-04-15T10:24:41.413Z,1.90
2023-04-15T10:26:46.144Z,2.40
2023-04-15T10:28:49.467Z,2.10
2023-04-15T10:30:53.695Z,2.40
2023-04-15T10:32:59.147Z,2.53
2023-04-15T10:35:04.361Z,2.23
2023-04-15T10:37:11.472Z,2.30
2023-04-15T10:39:40.649Z,2.43
2023-04-15T10:41:44.214Z,2.33
2023-04-15T10:43:50.277Z,2.10
2023-04-15T10:45:55.355Z,2.10
2023-04-15T10:48:03.808Z,1.63
2023-04-15T10:50:08.411Z,1.83
2023-04-15T10:52:11.933Z,1.80
2023-04-15T10:54:17.596Z,1.57
2023-04-15T10:56:21.791Z,1.60
2023-04-15T10:58:26.074Z,1.60
2023-04-15T11:00:31.239Z,2.03
2023-04-15T11:02:46.575Z,1.90
2023-04-15T11:04:56.178Z,1.70
2023-04-15T11:07:07.626Z,1.67
2023-04-15T11:09:34.484Z,1.77
2023-04-15T11:12:08.891Z,1.60
2023-04-15T11:14:16.933Z,1.90
2023-04-15T11:16:20.716Z,2.00
2023-04-15T11:18:25.747Z,1.57
2023-04-15T11:20:31.165Z,2.17
2023-04-15T11:22:34.656Z,1.63
2023-04-15T11:24:38.380Z,2.10
2023-04-15T11:26:41.948Z,2.00
2023-04-15T11:28:46.882Z,1.80
2023-04-15T11:30:50.681Z,2.10
2023-04-15T11:32:56.339Z,2.20
2023-04-15T11:34:59.618Z,1.57
2023-04-15T11:37:08.031Z,2.10
2023-04-15T11:39:11.419Z,2.13
2023-04-15T11:41:14.828Z,2.63
2023-04-15T11:43:20.977Z,1.90
2023-04-15T11:45:24.388Z,2.30
2023-04-15T11:47:27.690Z,2.00
2023-04-15T11:49:33.973Z,2.23
2023-04-15T11:51:37.694Z,2.20
2023-04-15T11:53:43.674Z,1.70
2023-04-15T11:55:48.571Z,2.10
2023-04-15T11:57:52.582Z,1.73
2023-04-15T11:59:57.216Z,1.53
2023-04-15T12:02:00.868Z,1.93
2023-04-15T12:04:12.109Z,1.90
2023-04-15T12:06:19.259Z,1.93
2023-04-15T12:08:22.829Z,2.53
2023-04-15T12:10:29.130Z,2.33
2023-04-15T12:12:32.612Z,1.93
2023-04-15T12:14:36.754Z,2.03
2023-04-15T12:16:48.788Z,1.37
2023-04-15T12:18:53.553Z,1.80
2023-04-15T12:20:56.981Z,2.40
2023-04-15T12:23:07.541Z,2.23
2023-04-15T12:25:11.105Z,1.90
2023-04-15T12:27:18.710Z,1.40
2023-04-15T12:29:26.287Z,1.60
2023-04-15T12:31:30.027Z,1.40
2023-04-15T12:33:35.127Z,1.90
2023-04-15T12:35:38.416Z,2.17
2023-04-15T12:37:41.994Z,1.40
2023-04-15T12:39:51.183Z,1.67
2023-04-15T12:41:55.022Z,1.50
2023-04-15T12:44:00.012Z,1.70
2023-04-15T12:46:03.749Z,1.57
2023-04-15T12:48:09.633Z,1.47
2023-04-15T12:50:12.830Z,1.40
2023-04-15T12:52:16.666Z,1.70
2023-04-15T12:54:20.533Z,1.90
2023-04-15T12:56:24.321Z,1.50
2023-04-15T12:58:27.617Z,1.60
2023-04-15T13:00:34.697Z,1.27
2023-04-15T13:02:38.225Z,0.90
2023-04-15T13:04:41.665Z,1.30
2023-04-15T13:06:45.527Z,1.00
2023-04-15T13:08:57.926Z,1.23
2023-04-15T13:11:02.824Z,1.50
2023-04-15T13:13:07.208Z,1.70
2023-04-15T13:15:12.101Z,1.50
2023-04-15T13:17:19.066Z,1.43
2023-04-15T13:19:22.322Z,1.43
2023-04-15T13:21:26.052Z,1.30
2023-04-15T13:23:29.288Z,1.30
2023-04-15T13:25:32.532Z,1.43
2023-04-15T13:27:36.069Z,1.07
2023-04-15T13:29:40.347Z,1.40
2023-04-15T13:31:43.827Z,1.63
2023-04-15T13:33:48.645Z,1.60
2023-04-15T13:35:51.891Z,1.50
2023-04-15T13:37:56.437Z,1.40
2023-04-15T13:39:59.703Z,1.10
2023-04-15T13:42:03.737Z,1.03
2023-04-15T13:44:07.411Z,0.87
2023-04-15T13:46:11.498Z,0.90
2023-04-15T13:48:15.022Z,0.83
2023-04-15T13:50:19.745Z,0.70
2023-04-15T13:52:23.102Z,0.70
2023-04-15T13:54:37.695Z,0.90
2023-04-15T13:56:41.592Z,0.70
2023-04-15T13:58:45.084Z,0.93
2023-04-15T14:00:48.578Z,0.83
2023-04-15T14:02:51.933Z,1.07
2023-04-15T14:04:55.758Z,0.60
2023-04-15T14:07:01.911Z,0.93
2023-04-15T14:09:06.469Z,0.67
2023-04-15T14:11:10.684Z,1.00
2023-04-15T14:13:14.146Z,0.80
2023-04-15T14:15:17.854Z,0.60
2023-04-15T14:17:21.475Z,1.13
2023-04-15T14:19:25.346Z,0.70
2023-04-15T14:21:30.159Z,0.90
2023-04-15T14:23:35.046Z,1.03
2023-04-15T14:25:39.920Z,1.13
2023-04-15T14:27:43.375Z,1.17
2023-04-15T14:29:47.036Z,3.30
2023-04-15T14:32:04.461Z,3.23
2023-04-15T14:34:14.705Z,3.33
2023-04-15T14:36:18.222Z,2.13
2023-04-15T14:38:22.810Z,2.60
2023-04-15T14:40:27.783Z,1.27
2023-04-15T14:42:31.142Z,1.80
2023-04-15T14:44:34.870Z,1.53
2023-04-15T14:46:38.490Z,0.90
2023-04-15T14:48:42.212Z,0.90
2023-04-15T14:50:45.607Z,0.87
2023-04-15T14:52:49.129Z,0.93
2023-04-15T14:54:52.338Z,1.30
2023-04-15T14:56:57.344Z,0.70
2023-04-15T14:59:00.983Z,0.90
2023-04-15T15:01:05.697Z,0.70
2023-04-15T15:03:13.070Z,1.23
2023-04-15T15:05:16.783Z,1.07
2023-04-15T15:07:20.276Z,1.40
2023-04-15T15:09:24.081Z,0.80
2023-04-15T15:11:27.642Z,0.90
2023-04-15T15:13:32.800Z,1.03
2023-04-15T15:15:36.668Z,0.67
2023-04-15T15:17:40.144Z,0.90
2023-04-15T15:19:43.701Z,0.77
2023-04-15T15:21:47.236Z,1.00
2023-04-15T15:23:50.526Z,0.80
2023-04-15T15:25:53.875Z,1.00
2023-04-15T15:27:58.340Z,1.23
2023-04-15T15:30:03.069Z,0.80
2023-04-15T15:32:07.003Z,0.90
2023-04-15T15:34:10.463Z,1.00
2023-04-15T15:36:13.826Z,0.80
2023-04-15T15:38:17.218Z,0.80
2023-04-15T15:40:20.444Z,0.77
2023-04-15T15:42:24.434Z,1.00
2023-04-15T15:44:27.889Z,0.80
2023-04-15T15:46:33.150Z,1.10
2023-04-15T15:48:37.015Z,0.70
2023-04-15T15:50:40.403Z,0.93
2023-04-15T15:52:43.822Z,1.10
2023-04-15T15:54:47.379Z,0.90
2023-04-15T15:56:50.663Z,1.10
2023-04-15T15:58:53.929Z,1.00
2023-04-15T16:00:58.314Z,1.40
2023-04-15T16:03:07.903Z,1.30
2023-04-15T16:05:12.541Z,1.77
2023-04-15T16:07:15.997Z,1.88
2023-04-15T16:09:19.498Z,2.20
2023-04-15T16:11:22.779Z,2.00
2023-04-15T16:13:26.579Z,1.48
2023-04-15T16:15:30.038Z,2.00
2023-04-15T16:17:34.363Z,1.75
2023-04-15T16:19:39.597Z,2.22
2023-04-15T16:21:43.014Z,2.90
2023-04-15T16:23:46.783Z,2.20
2023-04-15T16:25:50.105Z,3.15
2023-04-15T16:28:01.290Z,1.80
2023-04-15T16:30:11.576Z,1.80
2023-04-15T16:32:18.098Z,1.02
2023-04-15T16:34:21.466Z,0.80
2023-04-15T16:36:26.621Z,0.85
2023-04-15T16:38:29.946Z,0.70
2023-04-15T16:40:33.263Z,1.65
2023-04-15T16:42:37.157Z,1.27
2023-04-15T16:44:40.658Z,1.30
2023-04-15T16:46:43.872Z,1.20
2023-04-15T16:48:47.211Z,1.20
2023-04-15T16:50:50.629Z,1.10
2023-04-15T16:52:56.424Z,0.70
2023-04-15T16:54:59.656Z,1.10
2023-04-15T16:57:03.572Z,1.83
2023-04-15T16:59:06.979Z,2.50
2023-04-15T17:01:10.315Z,1.70
2023-04-15T17:03:14.196Z,2.07
2023-04-15T17:05:17.807Z,2.30
2023-04-15T17:07:21.523Z,1.40
2023-04-15T17:09:26.499Z,1.70
2023-04-15T17:11:30.048Z,1.60
2023-04-15T17:13:33.728Z,1.17
2023-04-15T17:15:37.187Z,1.20
2023-04-15T17:17:40.638Z,1.40
2023-04-15T17:19:44.022Z,2.77
2023-04-15T17:21:48.103Z,2.07
2023-04-15T17:23:53.778Z,2.73
2023-04-15T17:25:58.715Z,3.50
2023-04-15T17:28:02.558Z,2.83
2023-04-15T17:30:06.961Z,3.10
2023-04-15T17:32:11.210Z,2.30
2023-04-15T17:34:16.044Z,1.90
2023-04-15T17:36:20.499Z,1.97
2023-04-15T17:38:24.218Z,2.63
2023-04-15T17:40:27.848Z,4.53
2023-04-15T17:42:32.581Z,5.80
2023-04-15T17:44:36.035Z,7.07
2023-04-15T17:46:39.517Z,6.10
2023-04-15T17:48:43.381Z,5.88
2023-04-15T17:50:47.024Z,5.28
2023-04-15T17:52:50.443Z,4.87
2023-04-15T17:54:53.864Z,4.20
2023-04-15T17:56:58.161Z,4.23
2023-04-15T17:59:03.641Z,4.43
2023-04-15T18:01:07.626Z,3.90
2023-04-15T18:03:10.953Z,3.67
2023-04-15T18:05:14.692Z,4.00
2023-04-15T18:07:18.088Z,3.63
2023-04-15T18:09:21.790Z,4.75
2023-04-15T18:11:25.638Z,4.60
2023-04-15T18:13:28.912Z,4.20
2023-04-15T18:15:34.036Z,3.40
2023-04-15T18:17:37.762Z,2.83
2023-04-15T18:19:41.766Z,2.53
2023-04-15T18:21:45.520Z,1.83
2023-04-15T18:23:49.017Z,1.65
2023-04-15T18:25:52.407Z,2.38
2023-04-15T18:27:56.845Z,2.13
2023-04-15T18:30:00.536Z,1.83
2023-04-15T18:32:05.612Z,1.83
2023-04-15T18:34:09.051Z,1.90
2023-04-15T18:36:12.625Z,1.90
2023-04-15T18:38:16.243Z,2.30
2023-04-15T18:40:19.642Z,2.38
2023-04-15T18:42:22.941Z,2.90
2023-04-15T18:44:26.660Z,3.13
2023-04-15T18:46:30.572Z,3.33
2023-04-15T18:48:35.271Z,2.95
2023-04-15T18:50:38.760Z,2.63
2023-04-15T18:52:42.250Z,2.75
2023-04-15T18:54:45.538Z,2.90
2023-04-15T18:56:48.937Z,2.75
2023-04-15T18:59:18.254Z,2.78
2023-04-15T19:01:15.785Z,3.28
2023-04-15T19:03:19.421Z,3.10
2023-04-15T19:05:24.463Z,2.97
2023-04-15T19:07:28.004Z,2.60
2023-04-15T19:09:31.272Z,2.30
2023-04-15T19:11:34.500Z,2.63
2023-04-15T19:13:37.775Z,2.65
2023-04-15T19:15:41.131Z,3.28
2023-04-15T19:17:44.759Z,2.75
2023-04-15T19:19:48.064Z,3.50
2023-04-15T19:21:53.811Z,3.22
2023-04-15T19:23:57.743Z,2.90
2023-04-15T19:26:01.007Z,2.50
2023-04-15T19:28:04.441Z,2.60
2023-04-15T19:30:09.113Z,2.42
2023-04-15T19:32:14.226Z,1.80
2023-04-15T19:34:17.783Z,2.75
2023-04-15T19:36:21.443Z,2.05
2023-04-15T19:38:26.257Z,2.33
2023-04-15T19:40:29.850Z,2.40
2023-04-15T19:42:33.350Z,1.90
2023-04-15T19:44:37.374Z,2.15
2023-04-15T19:46:40.939Z,2.03
2023-04-15T19:48:44.376Z,2.45
2023-04-15T19:50:47.671Z,2.00
2023-04-15T19:52:50.987Z,1.50
2023-04-15T19:54:55.763Z,1.63
2023-04-15T19:56:59.252Z,2.35
2023-04-15T19:59:02.728Z,3.10
2023-04-15T20:01:09.198Z,2.60
2023-04-15T20:03:13.755Z,2.50
2023-04-15T20:05:17.227Z,2.63
2023-04-15T20:07:20.534Z,11.05
2023-04-15T20:09:24.149Z,14.60
2023-04-15T20:12:47.849Z,23.88
2023-04-15T20:13:53.450Z,26.20
2023-04-15T20:15:57.053Z,26.30
2023-04-15T20:18:01.133Z,14.20
2023-04-15T20:20:05.665Z,13.15
2023-04-15T20:22:09.259Z,7.38
2023-04-15T20:24:12.653Z,8.05
2023-04-15T20:26:17.886Z,11.68
2023-04-15T20:28:23.518Z,14.85
2023-04-15T20:30:28.756Z,5.82
2023-04-15T20:32:35.672Z,5.50
2023-04-15T20:34:40.281Z,5.30
2023-04-15T20:36:43.467Z,5.32
2023-04-15T20:38:47.226Z,5.05
2023-04-15T20:40:51.449Z,5.18
2023-04-15T20:42:55.246Z,6.00
2023-04-15T20:44:59.871Z,5.22
2023-04-15T20:47:03.268Z,4.75
2023-04-15T20:49:07.005Z,4.78
2023-04-15T20:51:10.542Z,4.35
2023-04-15T20:53:13.948Z,3.70
2023-04-15T20:55:17.334Z,4.85
2023-04-15T20:57:21.254Z,4.43
2023-04-15T20:59:24.575Z,3.75
2023-04-15T21:01:29.377Z,4.20
2023-04-15T21:03:33.118Z,3.60
2023-04-15T21:05:36.770Z,4.55
2023-04-15T21:07:41.075Z,3.85
2023-04-15T21:09:44.686Z,4.40
2023-04-15T21:13:55.712Z,3.80
2023-04-15T21:15:59.162Z,6.63
2023-04-15T21:18:03.841Z,4.32
2023-04-15T21:20:08.502Z,5.28
2023-04-15T21:22:11.897Z,4.75
2023-04-15T21:24:15.490Z,4.38
2023-04-15T21:26:18.893Z,5.00
2023-04-15T21:28:22.407Z,4.80
2023-04-15T21:30:25.681Z,5.00
2023-04-15T21:32:30.538Z,3.95
2023-04-15T21:34:35.659Z,3.85
2023-04-15T21:36:40.130Z,3.53
2023-04-15T21:38:43.641Z,3.78
2023-04-15T21:40:47.030Z,3.97
2023-04-15T21:42:51.446Z,3.70
2023-04-15T21:44:54.965Z,4.15
2023-04-15T21:46:58.499Z,4.38
2023-04-15T21:49:02.035Z,4.28
2023-04-15T21:51:07.357Z,4.60
2023-04-15T21:53:11.184Z,4.93
2023-04-15T21:55:14.475Z,4.20
2023-04-15T21:57:18.676Z,5.35
2023-04-15T21:59:22.770Z,5.20
2023-04-15T22:01:26.487Z,4.60
2023-04-15T22:03:30.782Z,4.53
2023-04-15T22:05:34.218Z,5.03
2023-04-15T22:07:38.794Z,4.00
2023-04-15T22:09:42.002Z,4.30
2023-04-15T22:11:46.236Z,4.28
2023-04-15T22:13:49.593Z,4.55
2023-04-15T22:15:52.893Z,3.80
2023-04-15T22:17:56.347Z,3.70
2023-04-15T22:19:59.797Z,3.45
2023-04-15T22:22:03.075Z,3.45
2023-04-15T22:24:32.941Z,3.47
2023-04-15T22:26:31.163Z,3.88
2023-04-15T22:28:34.531Z,4.28
2023-04-15T22:30:39.951Z,4.45
2023-04-15T22:32:43.427Z,4.30
2023-04-15T22:34:46.771Z,3.40
2023-04-15T22:36:50.764Z,3.90
2023-04-15T22:38:54.213Z,3.92
2023-04-15T22:40:58.859Z,3.65
2023-04-15T22:43:02.104Z,3.90
2023-04-15T22:45:06.172Z,3.15
2023-04-15T22:47:09.341Z,3.35
2023-04-15T22:49:12.577Z,3.10
2023-04-15T22:51:22.816Z,3.33
2023-04-15T22:53:26.577Z,2.58
2023-04-15T22:55:29.766Z,3.53
2023-04-15T22:57:34.443Z,3.50
2023-04-15T22:59:37.639Z,4.00
2023-04-15T23:01:41.020Z,3.67
2023-04-15T23:03:55.816Z,3.05
2023-04-15T23:06:02.444Z,3.97
2023-04-15T23:08:05.933Z,8.25
2023-04-15T23:10:10.657Z,8.88
2023-04-15T23:12:15.074Z,6.78
2023-04-15T23:14:19.687Z,3.97
2023-04-15T23:16:23.057Z,4.10
2023-04-15T23:18:26.587Z,2.95
2023-04-15T23:20:29.818Z,3.42
2023-04-15T23:22:33.039Z,3.80
2023-04-15T23:24:36.260Z,3.10
2023-04-15T23:26:39.526Z,3.40
2023-04-15T23:28:43.126Z,3.45
2023-04-15T23:30:47.887Z,4.18
2023-04-15T23:32:51.168Z,2.70
2023-04-15T23:34:54.702Z,3.20
2023-04-15T23:36:58.051Z,3.95
2023-04-15T23:39:01.538Z,3.03
2023-04-15T23:41:04.933Z,3.05
2023-04-15T23:43:08.415Z,3.85
2023-04-15T23:45:12.724Z,4.20
2023-04-15T23:47:17.667Z,4.90
2023-04-15T23:49:20.935Z,3.53
2023-04-15T23:51:24.249Z,4.45
2023-04-15T23:53:27.528Z,3.85
2023-04-15T23:55:31.423Z,3.33
2023-04-15T23:57:35.022Z,3.60
2023-04-15T23:59:38.266Z,2.95
